Time;durP1;ratioP1;P1;durP2;ratioP2;P2;SDS_P1;SDS_P2;PMS_P1;PMS_P2;Temp;Humidity;BMP_temperature;BMP_pressure;BME280_temperature;BME280_humidity;BME280_pressure;Samples;Min_cycle;Max_cycle;Signal;HPM_P1;HPM_P2
2023/07/08 00:00:28;;;;;;;;;;;17.60;99.90;;;;;;5096969;28;19959;-77
2023/07/08 00:02:53;;;;;;;;;;;17.50;99.90;;;;;;5101837;28;19946;-76
2023/07/08 00:05:20;;;;;;;;;;;17.50;99.90;;;;;;5115661;28;20392;-76
2023/07/08 00:07:46;;;;;;;;;;;17.50;99.90;;;;;;5103215;28;19947;-77
2023/07/08 00:10:21;;;;;;;;;;;17.50;99.90;;;;;;5090869;28;19998;-77
2023/07/08 00:12:50;;;;;;;;;;;17.40;99.90;;;;;;5099984;28;19923;-76
2023/07/08 00:15:16;;;;;;;;;;;17.30;99.90;;;;;;5091442;28;19932;-78
2023/07/08 00:17:43;;;;;;;;;;;17.30;99.90;;;;;;5090550;28;19924;-76
2023/07/08 00:20:13;;;;;;;;;;;17.30;99.90;;;;;;5094684;28;19924;-77
2023/07/08 00:22:40;;;;;;;;;;;17.30;99.90;;;;;;5092881;28;20400;-77
2023/07/08 00:25:06;;;;;;;;;;;17.20;99.90;;;;;;5094289;28;20069;-76
2023/07/08 00:27:32;;;;;;;;;;;17.20;99.90;;;;;;5093673;28;19931;-77
2023/07/08 00:30:00;;;;;;;;;;;17.20;99.90;;;;;;5096131;28;19928;-77
2023/07/08 00:32:25;;;;;;;;;;;17.10;99.90;;;;;;5093512;28;19993;-76
2023/07/08 00:34:51;;;;;;;;;;;17.10;99.90;;;;;;5096596;28;20385;-76
2023/07/08 00:37:16;;;;;;;;;;;17.10;99.90;;;;;;5091371;28;19924;-76
2023/07/08 00:39:42;;;;;;;;;;;17.10;99.90;;;;;;5100080;28;19950;-77
2023/07/08 00:42:13;;;;;;;;;;;17.00;99.90;;;;;;5080945;28;19924;-77
2023/07/08 00:44:39;;;;;;;;;;;17.00;99.90;;;;;;5089757;28;19934;-76
2023/07/08 00:47:09;;;;;;;;;;;16.90;99.90;;;;;;5108863;28;19969;-77
2023/07/08 00:49:47;;;;;;;;;;;16.90;99.90;;;;;;5089891;28;19924;-78
2023/07/08 00:52:41;;;;;;;;;;;16.90;99.90;;;;;;5092163;28;19969;-77
2023/07/08 00:55:08;;;;;;;;;;;16.90;99.90;;;;;;5084822;28;19952;-79
2023/07/08 00:57:36;;;;;;;;;;;16.80;99.90;;;;;;5104246;28;19945;-78
2023/07/08 01:00:08;;;;;;;;;;;16.80;99.90;;;;;;5100332;28;19928;-75
2023/07/08 01:02:38;;;;;;;;;;;16.80;99.90;;;;;;5096556;28;20366;-77
2023/07/08 01:05:08;;;;;;;;;;;16.80;99.90;;;;;;5096916;28;20389;-76
2023/07/08 01:07:34;;;;;;;;;;;16.80;99.90;;;;;;5088842;28;19924;-77
2023/07/08 01:10:07;;;;;;;;;;;16.80;99.90;;;;;;5092156;28;19924;-77
2023/07/08 01:12:36;;;;;;;;;;;16.80;99.90;;;;;;5085618;28;19928;-77
2023/07/08 01:15:03;;;;;;;;;;;16.70;99.90;;;;;;5092686;28;19924;-77
2023/07/08 01:17:32;;;;;;;;;;;16.70;99.90;;;;;;5094090;28;20076;-77
2023/07/08 01:19:59;;;;;;;;;;;16.70;99.90;;;;;;5092301;28;20371;-76
2023/07/08 01:22:24;;;;;;;;;;;16.70;99.90;;;;;;5103425;28;19950;-77
2023/07/08 01:24:50;;;;;;;;;;;16.70;99.90;;;;;;5099493;28;20305;-77
2023/07/08 01:27:17;;;;;;;;;;;16.60;99.90;;;;;;5095986;28;19924;-77
2023/07/08 01:29:43;;;;;;;;;;;16.60;99.90;;;;;;5101410;28;20401;-76
2023/07/08 01:32:13;;;;;;;;;;;16.60;99.90;;;;;;5109196;28;19924;-77
2023/07/08 01:34:39;;;;;;;;;;;16.60;99.90;;;;;;5087392;28;20006;-76
2023/07/08 01:37:06;;;;;;;;;;;16.60;99.90;;;;;;5091009;28;20432;-77
2023/07/08 01:39:32;;;;;;;;;;;16.50;99.90;;;;;;5095276;28;20016;-78
2023/07/08 01:41:57;;;;;;;;;;;16.50;99.90;;;;;;5079791;28;19960;-77
2023/07/08 01:44:26;;;;;;;;;;;16.50;99.90;;;;;;5095654;28;19924;-77
2023/07/08 01:46:52;;;;;;;;;;;16.50;99.90;;;;;;5096693;28;20419;-77
2023/07/08 01:49:18;;;;;;;;;;;16.50;99.90;;;;;;5082337;28;19932;-76
2023/07/08 01:51:44;;;;;;;;;;;16.50;99.90;;;;;;5098483;28;19924;-78
2023/07/08 01:54:10;;;;;;;;;;;16.50;99.90;;;;;;5095191;28;20343;-77
2023/07/08 01:56:36;;;;;;;;;;;16.50;99.90;;;;;;5098084;28;20037;-77
2023/07/08 01:59:01;;;;;;;;;;;16.40;99.90;;;;;;5092731;28;19907;-77
2023/07/08 02:01:27;;;;;;;;;;;16.50;99.90;;;;;;5095010;28;19924;-76
2023/07/08 02:03:52;;;;;;;;;;;16.50;99.90;;;;;;5095988;28;19920;-78
2023/07/08 02:06:19;;;;;;;;;;;16.50;99.90;;;;;;5099875;28;19928;-76
2023/07/08 02:08:44;;;;;;;;;;;16.50;99.90;;;;;;5091121;28;21494;-77
2023/07/08 02:11:10;;;;;;;;;;;16.50;99.90;;;;;;5088760;28;19928;-77
2023/07/08 02:13:35;;;;;;;;;;;16.50;99.90;;;;;;5096185;28;19977;-77
2023/07/08 02:16:01;;;;;;;;;;;16.50;99.90;;;;;;5099706;28;19924;-77
2023/07/08 02:18:26;;;;;;;;;;;16.60;99.90;;;;;;5096145;28;19937;-78
2023/07/08 02:20:52;;;;;;;;;;;16.50;99.90;;;;;;5096167;28;20298;-78
2023/07/08 02:23:18;;;;;;;;;;;16.50;99.90;;;;;;5109765;28;20271;-76
2023/07/08 02:25:53;;;;;;;;;;;16.50;99.90;;;;;;5093535;28;19924;-78
2023/07/08 02:28:18;;;;;;;;;;;16.50;99.90;;;;;;5102249;28;20441;-76
2023/07/08 02:30:45;;;;;;;;;;;16.50;99.90;;;;;;5096533;28;19969;-77
2023/07/08 02:33:11;;;;;;;;;;;16.50;99.90;;;;;;5089626;28;19982;-76
2023/07/08 02:35:37;;;;;;;;;;;16.50;99.90;;;;;;5097644;28;20392;-77
2023/07/08 02:38:03;;;;;;;;;;;16.50;99.90;;;;;;5081315;28;19924;-77
2023/07/08 02:40:28;;;;;;;;;;;16.50;99.90;;;;;;5097452;28;19964;-76
2023/07/08 02:42:54;;;;;;;;;;;16.60;99.90;;;;;;5109444;28;19924;-77
2023/07/08 02:45:20;;;;;;;;;;;16.50;99.90;;;;;;5096391;28;19932;-77
2023/07/08 02:47:46;;;;;;;;;;;16.50;99.90;;;;;;5097509;28;19955;-77
2023/07/08 02:50:11;;;;;;;;;;;16.50;99.90;;;;;;5098403;28;20013;-77
2023/07/08 02:52:37;;;;;;;;;;;16.50;99.90;;;;;;5096599;28;20373;-78
2023/07/08 02:55:03;;;;;;;;;;;16.50;99.90;;;;;;5093434;28;19932;-76
2023/07/08 02:57:29;;;;;;;;;;;16.50;99.90;;;;;;5090384;28;19931;-77
2023/07/08 02:59:54;;;;;;;;;;;16.50;99.90;;;;;;5098823;28;19986;-78
2023/07/08 03:02:21;;;;;;;;;;;16.50;99.90;;;;;;5102592;28;20430;-78
2023/07/08 03:04:47;;;;;;;;;;;16.40;99.90;;;;;;5095475;28;19928;-77
2023/07/08 03:07:13;;;;;;;;;;;16.40;99.90;;;;;;5098096;28;20282;-78
2023/07/08 03:09:39;;;;;;;;;;;16.40;99.90;;;;;;5092616;28;19931;-78
2023/07/08 03:12:08;;;;;;;;;;;16.40;99.90;;;;;;5097160;28;19925;-77
2023/07/08 03:14:34;;;;;;;;;;;16.40;99.90;;;;;;5096302;28;19936;-76
2023/07/08 03:16:59;;;;;;;;;;;16.40;99.90;;;;;;5087468;28;19924;-77
2023/07/08 03:19:25;;;;;;;;;;;16.40;99.90;;;;;;5110767;28;19979;-76
2023/07/08 03:21:51;;;;;;;;;;;16.40;99.90;;;;;;5109149;28;19920;-78
2023/07/08 03:24:17;;;;;;;;;;;16.40;99.90;;;;;;5097049;28;19924;-76
2023/07/08 03:26:44;;;;;;;;;;;16.40;99.90;;;;;;5099923;28;19927;-77
2023/07/08 03:29:18;;;;;;;;;;;16.40;99.90;;;;;;5097945;28;19923;-77
2023/07/08 03:31:45;;;;;;;;;;;16.30;99.90;;;;;;5102316;28;19936;-80
2023/07/08 03:34:15;;;;;;;;;;;16.40;99.90;;;;;;5103064;28;20113;-77
2023/07/08 03:36:48;;;;;;;;;;;16.40;99.90;;;;;;5117886;28;20405;-77
2023/07/08 03:39:17;;;;;;;;;;;16.40;99.90;;;;;;5107502;28;20011;-78
2023/07/08 03:41:43;;;;;;;;;;;16.40;99.90;;;;;;5100288;28;19932;-78
2023/07/08 03:44:09;;;;;;;;;;;16.40;99.90;;;;;;5090886;28;19924;-78
2023/07/08 03:46:34;;;;;;;;;;;16.30;99.90;;;;;;5080807;28;19932;-78
2023/07/08 03:49:00;;;;;;;;;;;16.40;99.90;;;;;;5111031;28;19907;-77
2023/07/08 03:51:35;;;;;;;;;;;16.40;99.90;;;;;;5095249;28;19932;-77
2023/07/08 03:54:02;;;;;;;;;;;16.40;99.90;;;;;;5095745;28;19940;-76
2023/07/08 03:56:27;;;;;;;;;;;16.40;99.90;;;;;;5091047;28;20301;-77
2023/07/08 03:58:53;;;;;;;;;;;16.40;99.90;;;;;;5094824;28;19925;-77
2023/07/08 04:01:20;;;;;;;;;;;16.40;99.90;;;;;;5105972;28;19924;-77
2023/07/08 04:03:46;;;;;;;;;;;16.40;99.90;;;;;;5105728;28;20345;-76
2023/07/08 04:06:12;;;;;;;;;;;16.40;99.90;;;;;;5093820;28;19924;-77
2023/07/08 04:08:37;;;;;;;;;;;16.40;99.90;;;;;;5090283;28;19977;-77
2023/07/08 04:11:03;;;;;;;;;;;16.40;99.90;;;;;;5101289;28;19924;-77
2023/07/08 04:13:28;;;;;;;;;;;16.40;99.90;;;;;;5102135;28;20401;-77
2023/07/08 04:15:55;;;;;;;;;;;16.40;99.90;;;;;;5099951;28;19992;-77
2023/07/08 04:18:21;;;;;;;;;;;16.40;99.90;;;;;;5097731;28;19928;-78
2023/07/08 04:20:52;;;;;;;;;;;16.40;99.90;;;;;;5097717;28;19974;-77
2023/07/08 04:23:21;;;;;;;;;;;16.40;99.90;;;;;;5091523;28;19937;-78
2023/07/08 04:25:48;;;;;;;;;;;16.50;99.90;;;;;;5089436;28;20070;-77
2023/07/08 04:28:14;;;;;;;;;;;16.50;99.90;;;;;;5107914;27;20376;-76
2023/07/08 04:30:40;;;;;;;;;;;16.50;99.90;;;;;;5092354;28;19924;-77
2023/07/08 04:33:10;;;;;;;;;;;16.50;99.90;;;;;;5095696;28;19924;-78
2023/07/08 04:35:38;;;;;;;;;;;16.60;99.90;;;;;;5097139;28;19918;-77
2023/07/08 04:38:09;;;;;;;;;;;16.60;99.90;;;;;;5094188;28;20285;-78
2023/07/08 04:40:36;;;;;;;;;;;16.60;99.90;;;;;;5096037;28;19924;-77
2023/07/08 04:43:03;;;;;;;;;;;16.70;99.90;;;;;;5087923;28;19924;-78
2023/07/08 04:45:28;;;;;;;;;;;16.70;99.90;;;;;;5089573;28;20258;-76
2023/07/08 04:47:54;;;;;;;;;;;16.80;99.90;;;;;;5097387;28;19931;-80
2023/07/08 04:50:19;;;;;;;;;;;16.80;99.90;;;;;;5087165;28;19977;-79
2023/07/08 04:52:45;;;;;;;;;;;16.80;99.90;;;;;;5096865;28;19931;-77
2023/07/08 04:55:13;;;;;;;;;;;16.90;99.90;;;;;;5097202;28;19927;-76
2023/07/08 04:57:38;;;;;;;;;;;16.90;99.90;;;;;;5097694;28;19924;-78
2023/07/08 05:00:08;;;;;;;;;;;16.90;99.90;;;;;;5080177;28;20381;-77
2023/07/08 05:02:34;;;;;;;;;;;17.00;99.90;;;;;;5096500;28;20346;-78
2023/07/08 05:05:00;;;;;;;;;;;17.00;99.90;;;;;;5083579;28;19924;-78
2023/07/08 05:07:25;;;;;;;;;;;17.10;99.90;;;;;;5092945;28;19925;-77
2023/07/08 05:09:51;;;;;;;;;;;17.10;99.90;;;;;;5092093;28;19931;-78
2023/07/08 05:12:16;;;;;;;;;;;17.20;99.90;;;;;;5098373;28;19989;-78
2023/07/08 05:14:42;;;;;;;;;;;17.20;99.90;;;;;;5084423;28;19925;-77
2023/07/08 05:17:08;;;;;;;;;;;17.30;99.90;;;;;;5092174;28;19936;-77
2023/07/08 05:19:33;;;;;;;;;;;17.40;99.90;;;;;;5104560;28;19908;-77
2023/07/08 05:21:59;;;;;;;;;;;17.50;99.90;;;;;;5102068;28;19931;-78
2023/07/08 05:24:25;;;;;;;;;;;17.60;99.90;;;;;;5092142;28;20091;-77
2023/07/08 05:26:50;;;;;;;;;;;17.60;99.90;;;;;;5088741;28;19943;-77
2023/07/08 05:29:16;;;;;;;;;;;17.80;99.90;;;;;;5086431;28;19908;-76
2023/07/08 05:31:41;;;;;;;;;;;17.90;99.90;;;;;;5093828;28;19924;-76
2023/07/08 05:34:07;;;;;;;;;;;18.00;99.90;;;;;;5090835;28;19935;-77
2023/07/08 05:36:33;;;;;;;;;;;18.10;99.90;;;;;;5099883;28;19924;-78
2023/07/08 05:38:58;;;;;;;;;;;18.10;99.90;;;;;;5105769;28;19962;-79
2023/07/08 05:41:24;;;;;;;;;;;18.20;99.90;;;;;;5089148;28;19924;-77
2023/07/08 05:43:50;;;;;;;;;;;18.30;99.90;;;;;;5091240;28;19963;-77
2023/07/08 05:46:15;;;;;;;;;;;18.30;99.90;;;;;;5094302;28;20374;-76
2023/07/08 05:48:41;;;;;;;;;;;18.30;99.90;;;;;;5090446;28;20247;-77
2023/07/08 05:51:06;;;;;;;;;;;18.40;99.90;;;;;;5077326;28;19994;-78
2023/07/08 05:53:32;;;;;;;;;;;18.50;99.90;;;;;;5096793;28;19920;-78
2023/07/08 05:55:57;;;;;;;;;;;18.70;99.90;;;;;;5092702;28;19924;-77
2023/07/08 05:58:23;;;;;;;;;;;18.80;99.90;;;;;;5089009;28;19932;-76
2023/07/08 06:00:54;;;;;;;;;;;19.00;99.90;;;;;;5091220;28;19973;-77
2023/07/08 06:03:20;;;;;;;;;;;19.00;99.90;;;;;;5082235;28;19925;-78
2023/07/08 06:05:45;;;;;;;;;;;19.20;99.90;;;;;;5083122;28;19991;-78
2023/07/08 06:08:11;;;;;;;;;;;19.30;99.90;;;;;;5087692;28;19967;-77
2023/07/08 06:10:41;;;;;;;;;;;19.50;99.90;;;;;;5093611;28;19928;-79
2023/07/08 06:13:06;;;;;;;;;;;19.70;99.90;;;;;;5084942;28;19924;-77
2023/07/08 06:15:32;;;;;;;;;;;19.90;99.90;;;;;;5089227;28;19928;-79
2023/07/08 06:18:00;;;;;;;;;;;20.20;99.90;;;;;;5096732;28;19928;-78
2023/07/08 06:20:26;;;;;;;;;;;20.30;99.90;;;;;;5104139;28;19924;-77
2023/07/08 06:22:51;;;;;;;;;;;20.40;99.90;;;;;;5099831;28;20281;-76
2023/07/08 06:25:17;;;;;;;;;;;20.40;99.90;;;;;;5097803;28;19932;-79
2023/07/08 06:27:42;;;;;;;;;;;20.30;99.90;;;;;;5092018;28;19939;-77
2023/07/08 06:30:08;;;;;;;;;;;20.30;99.90;;;;;;5089455;28;20778;-77
2023/07/08 06:32:34;;;;;;;;;;;20.30;99.90;;;;;;5108418;28;19932;-76
2023/07/08 06:34:59;;;;;;;;;;;20.30;99.90;;;;;;5100372;28;19929;-78
2023/07/08 06:37:25;;;;;;;;;;;20.30;99.90;;;;;;5096999;28;19932;-77
2023/07/08 06:39:50;;;;;;;;;;;20.30;99.90;;;;;;5094562;28;19971;-76
2023/07/08 06:42:16;;;;;;;;;;;20.40;99.90;;;;;;5096583;28;20370;-78
2023/07/08 06:44:49;;;;;;;;;;;20.50;99.90;;;;;;5100456;28;20015;-76
2023/07/08 06:47:16;;;;;;;;;;;20.60;99.90;;;;;;5097235;28;19928;-79
2023/07/08 06:49:42;;;;;;;;;;;20.70;99.90;;;;;;5097329;28;19924;-78
2023/07/08 06:52:07;;;;;;;;;;;20.80;99.90;;;;;;5106330;28;19926;-77
2023/07/08 06:54:33;;;;;;;;;;;20.90;99.90;;;;;;5097567;28;19978;-77
2023/07/08 06:56:58;;;;;;;;;;;21.00;99.90;;;;;;5090056;28;19979;-78
2023/07/08 06:59:24;;;;;;;;;;;21.00;99.90;;;;;;5091652;28;19935;-79
2023/07/08 07:01:49;;;;;;;;;;;21.00;99.60;;;;;;5088816;28;19915;-77
2023/07/08 07:04:15;;;;;;;;;;;21.10;99.90;;;;;;5097573;28;19999;-78
2023/07/08 07:06:40;;;;;;;;;;;21.10;99.90;;;;;;5079913;28;20007;-78
2023/07/08 07:09:06;;;;;;;;;;;21.20;99.80;;;;;;5105117;28;19924;-79
2023/07/08 07:11:31;;;;;;;;;;;21.30;99.90;;;;;;5085949;28;19930;-78
2023/07/08 07:13:57;;;;;;;;;;;21.40;99.30;;;;;;5096748;28;20373;-78
2023/07/08 07:16:22;;;;;;;;;;;21.50;99.30;;;;;;5093746;28;19955;-77
2023/07/08 07:18:49;;;;;;;;;;;21.60;99.30;;;;;;5097135;28;19967;-77
2023/07/08 07:21:15;;;;;;;;;;;21.70;99.10;;;;;;5094249;28;19959;-79
2023/07/08 07:23:40;;;;;;;;;;;21.80;99.00;;;;;;5092204;28;20382;-77
2023/07/08 07:26:07;;;;;;;;;;;21.90;98.80;;;;;;5092592;28;20024;-79
2023/07/08 07:28:33;;;;;;;;;;;22.00;98.60;;;;;;5089053;28;19924;-77
2023/07/08 07:30:59;;;;;;;;;;;22.00;98.70;;;;;;5096487;28;19928;-76
2023/07/08 07:33:25;;;;;;;;;;;22.10;98.20;;;;;;5096982;28;19924;-78
2023/07/08 07:35:50;;;;;;;;;;;22.10;97.80;;;;;;5094838;28;19924;-78
2023/07/08 07:38:19;;;;;;;;;;;22.20;97.90;;;;;;5097861;28;19977;-77
2023/07/08 07:40:45;;;;;;;;;;;22.30;97.80;;;;;;5096918;28;19924;-78
2023/07/08 07:43:10;;;;;;;;;;;22.40;97.80;;;;;;5097260;28;19930;-78
2023/07/08 07:45:36;;;;;;;;;;;22.40;97.50;;;;;;5099183;28;19931;-78
2023/07/08 07:48:02;;;;;;;;;;;22.50;97.50;;;;;;5097247;28;19932;-77
2023/07/08 07:50:28;;;;;;;;;;;22.60;97.50;;;;;;5090928;28;19931;-77
2023/07/08 07:52:53;;;;;;;;;;;22.80;97.60;;;;;;5097135;28;19924;-78
2023/07/08 07:55:20;;;;;;;;;;;22.80;97.20;;;;;;5095524;28;20397;-78
2023/07/08 07:57:46;;;;;;;;;;;22.90;97.20;;;;;;5087345;28;19924;-77
2023/07/08 08:00:13;;;;;;;;;;;23.00;97.20;;;;;;5093502;28;20370;-78
2023/07/08 08:02:39;;;;;;;;;;;23.10;97.30;;;;;;5105711;28;19982;-78
2023/07/08 08:05:05;;;;;;;;;;;23.20;97.40;;;;;;5091009;28;20286;-78
2023/07/08 08:07:31;;;;;;;;;;;23.30;97.00;;;;;;5095496;28;19932;-77
2023/07/08 08:09:56;;;;;;;;;;;23.40;97.40;;;;;;5096886;28;19924;-77
2023/07/08 08:12:24;;;;;;;;;;;23.50;96.70;;;;;;5089414;28;19924;-78
2023/07/08 08:14:50;;;;;;;;;;;23.60;96.40;;;;;;5101826;28;19967;-77
2023/07/08 08:17:16;;;;;;;;;;;23.70;97.00;;;;;;5090468;28;19924;-78
2023/07/08 08:19:41;;;;;;;;;;;23.80;96.40;;;;;;5094829;28;19931;-79
2023/07/08 08:22:07;;;;;;;;;;;23.80;96.60;;;;;;5093444;28;19909;-78
2023/07/08 08:24:33;;;;;;;;;;;24.00;96.70;;;;;;5091297;28;20030;-77
2023/07/08 08:27:00;;;;;;;;;;;24.00;95.80;;;;;;5085520;28;19925;-77
2023/07/08 08:29:25;;;;;;;;;;;24.10;96.10;;;;;;5085929;28;20014;-77
2023/07/08 08:33:58;;;;;;;6.80;3.42;;;24.30;95.70;;;;;;5107263;27;20558;-77
2023/07/08 08:36:24;;;;;;;13.05;3.95;;;24.40;96.10;;;;;;5097999;28;20086;-78
2023/07/08 08:38:50;;;;;;;7.55;3.30;;;24.60;95.60;;;;;;5094682;28;20086;-78
2023/07/08 08:41:18;;;;;;;7.07;3.25;;;24.60;95.60;;;;;;5099015;28;20064;-78
2023/07/08 08:43:47;;;;;;;5.13;3.60;;;24.80;95.70;;;;;;5104860;28;20114;-78
2023/07/08 08:46:27;;;;;;;6.25;3.38;;;24.90;95.70;;;;;;5104447;28;20043;-79
2023/07/08 08:49:05;;;;;;;7.75;3.03;;;25.00;95.50;;;;;;5107801;28;20048;-80
2023/07/08 08:51:32;;;;;;;4.78;2.88;;;25.20;94.90;;;;;;5100704;28;20098;-80
2023/07/08 08:53:58;;;;;;;8.90;3.13;;;25.30;94.90;;;;;;5127184;28;20069;-79
2023/07/08 08:56:30;;;;;;;9.30;3.58;;;25.40;95.00;;;;;;5106040;28;20539;-78
2023/07/08 08:59:11;;;;;;;5.32;2.90;;;25.60;94.40;;;;;;5098382;28;20044;-79
2023/07/08 09:01:38;;;;;;;7.55;3.13;;;25.60;94.00;;;;;;5101005;28;20043;-79
2023/07/08 09:04:15;;;;;;;5.78;3.30;;;25.70;93.70;;;;;;5114011;28;20044;-78
2023/07/08 09:06:41;;;;;;;9.23;4.10;;;25.80;92.80;;;;;;5122302;28;20090;-81
2023/07/08 09:09:18;;;;;;;6.13;3.00;;;25.90;93.50;;;;;;5135232;28;20054;-78
2023/07/08 09:12:08;;;;;;;6.05;3.17;;;25.90;93.20;;;;;;5118138;28;20048;-80
2023/07/08 09:14:36;;;;;;;10.05;3.03;;;26.00;93.10;;;;;;5099183;28;20035;-80
2023/07/08 09:17:13;;;;;;;11.00;4.05;;;26.20;93.30;;;;;;5123903;27;20177;-81
2023/07/08 09:19:43;;;;;;;6.63;3.17;;;26.30;92.90;;;;;;5113558;28;20074;-79
2023/07/08 09:22:21;;;;;;;6.25;2.85;;;26.50;92.50;;;;;;5098482;28;20049;-78
2023/07/08 09:24:53;;;;;;;;;;;26.70;91.90;;;;;;5108084;28;20401;-79
2023/07/08 09:27:19;;;;;;;4.97;3.00;;;26.80;91.90;;;;;;5094708;28;19970;-79
2023/07/08 09:29:46;;;;;;;6.90;3.22;;;26.90;91.90;;;;;;5101861;28;20035;-80
2023/07/08 09:32:21;;;;;;;10.88;3.13;;;26.90;91.20;;;;;;5114665;28;20382;-79
2023/07/08 09:34:54;;;;;;;8.38;3.00;;;27.00;91.20;;;;;;5116871;28;20043;-80
2023/07/08 09:37:27;;;;;;;8.82;3.42;;;27.10;90.50;;;;;;5106218;28;20044;-80
2023/07/08 09:39:54;;;;;;;7.18;3.00;;;27.20;91.00;;;;;;5093897;28;20072;-79
2023/07/08 09:42:23;;;;;;;5.43;3.20;;;27.30;91.30;;;;;;5108602;28;20043;-79
2023/07/08 09:44:59;;;;;;;7.53;3.13;;;27.30;90.70;;;;;;5086518;28;20052;-79
2023/07/08 09:47:32;;;;;;;5.43;3.00;;;27.50;91.20;;;;;;5098735;28;20036;-79
2023/07/08 09:50:00;;;;;;;5.03;3.13;;;27.60;90.90;;;;;;5098048;28;20406;-80
2023/07/08 09:52:28;;;;;;;6.45;3.08;;;27.70;91.00;;;;;;5081381;28;20123;-79
2023/07/08 09:54:54;;;;;;;8.55;3.05;;;27.80;90.50;;;;;;5100430;28;20393;-81
2023/07/08 09:57:29;;;;;;;6.07;3.10;;;27.90;90.40;;;;;;5100278;28;20048;-80
2023/07/08 10:00:03;;;;;;;7.28;3.17;;;27.90;90.50;;;;;;5098241;28;20495;-81
2023/07/08 10:02:32;;;;;;;4.82;3.00;;;28.00;90.10;;;;;;5097324;28;20615;-79
2023/07/08 10:05:01;;;;;;;7.93;3.35;;;28.20;90.30;;;;;;5084945;28;20044;-79
2023/07/08 10:07:30;;;;;;;5.57;3.17;;;28.20;90.10;;;;;;5089271;28;20045;-78
2023/07/08 10:10:00;;;;;;;4.15;3.03;;;28.40;90.00;;;;;;5097346;28;20036;-80
2023/07/08 10:12:26;;;;;;;6.45;3.30;;;28.40;89.60;;;;;;5116486;28;20131;-79
2023/07/08 10:15:06;;;;;;;6.95;3.03;;;28.50;89.40;;;;;;5095947;28;20490;-79
2023/07/08 10:17:33;;;;;;;10.27;3.05;;;28.50;88.90;;;;;;5093428;28;20055;-79
2023/07/08 10:19:59;;;;;;;4.10;2.75;;;28.60;89.20;;;;;;5093680;28;20044;-78
2023/07/08 10:22:34;;;;;;;5.18;2.97;;;28.60;88.30;;;;;;5084382;28;20036;-80
2023/07/08 10:25:46;;;;;;;9.10;3.05;;;28.90;88.10;;;;;;5099686;28;20048;-79
2023/07/08 10:28:42;;;;;;;8.70;3.35;;;29.00;85.20;;;;;;5051323;28;20046;-78
2023/07/08 10:31:23;;;;;;;5.93;3.50;;;29.10;85.00;;;;;;5056544;28;20041;-78
2023/07/08 10:34:10;;;;;;;9.43;3.38;;;29.20;85.00;;;;;;5082214;28;20050;-79
2023/07/08 10:37:20;;;;;;;7.80;2.92;;;29.20;85.00;;;;;;5093376;28;20529;-80
2023/07/08 10:39:57;;;;;;;4.78;3.13;;;29.20;83.30;;;;;;5086640;28;20415;-79
2023/07/08 10:43:04;;;;;;;4.13;2.97;;;29.30;84.10;;;;;;5088143;28;20039;-78
2023/07/08 10:45:54;;;;;;;5.20;2.95;;;29.30;83.60;;;;;;5040681;28;20044;-79
2023/07/08 10:48:46;;;;;;;7.10;3.40;;;29.40;83.70;;;;;;5093599;28;20070;-79
2023/07/08 10:51:21;;;;;;;6.28;2.80;;;29.60;83.60;;;;;;5094418;28;20033;-79
2023/07/08 10:53:58;;;;;;;5.38;3.28;;;29.70;84.30;;;;;;5079523;28;20067;-78
2023/07/08 10:56:40;;;;;;;6.70;3.05;;;29.80;83.30;;;;;;5103381;28;20024;-79
2023/07/08 10:59:25;;;;;;;6.60;3.28;;;30.10;83.00;;;;;;5088507;28;20040;-79
2023/07/08 11:02:08;;;;;;;5.10;3.13;;;30.20;82.50;;;;;;5090305;28;20052;-79
2023/07/08 11:05:01;;;;;;;8.68;3.05;;;30.40;82.00;;;;;;5099501;28;20103;-80
2023/07/08 11:07:32;;;;;;;7.47;3.58;;;30.50;80.60;;;;;;5089357;28;20173;-78
2023/07/08 11:10:02;;;;;;;8.27;3.47;;;30.80;81.20;;;;;;5084716;28;20040;-79
2023/07/08 11:12:48;;;;;;;8.55;3.30;;;30.90;81.10;;;;;;5090192;28;20045;-79
2023/07/08 11:15:25;;;;;;;7.95;3.33;;;30.90;78.80;;;;;;5083558;28;20036;-78
2023/07/08 11:18:00;;;;;;;13.25;3.88;;;31.00;79.40;;;;;;5095739;28;20087;-80
2023/07/08 11:21:11;;;;;;;8.55;3.65;;;31.00;78.80;;;;;;5113895;28;20513;-80
2023/07/08 11:23:57;;;;;;;15.57;3.67;;;31.20;77.80;;;;;;5058086;28;20052;-77
2023/07/08 11:26:44;;;;;;;6.45;3.67;;;31.30;77.70;;;;;;5096471;28;20435;-80
2023/07/08 11:29:29;;;;;;;9.02;4.00;;;31.40;78.50;;;;;;5079007;28;20124;-78
2023/07/08 11:31:58;;;;;;;9.25;3.38;;;31.50;77.70;;;;;;5082741;28;20434;-77
2023/07/08 11:34:25;;;;;;;9.00;3.55;;;31.60;77.90;;;;;;5084511;28;20566;-79
2023/07/08 11:36:55;;;;;;;7.45;3.20;;;31.80;76.90;;;;;;5090361;28;20087;-80
2023/07/08 11:39:38;;;;;;;4.63;2.70;;;31.80;77.20;;;;;;5083009;28;20044;-80
2023/07/08 11:42:19;;;;;;;6.65;3.30;;;31.80;76.70;;;;;;5085117;28;20478;-79
2023/07/08 11:44:51;;;;;;;4.47;3.17;;;31.90;74.90;;;;;;5083279;28;20413;-78
2023/07/08 11:47:36;;;;;;;8.73;3.58;;;32.00;74.80;;;;;;5088980;28;20039;-79
2023/07/08 11:50:03;;;;;;;6.93;3.40;;;32.00;75.20;;;;;;5081655;28;20094;-79
2023/07/08 11:52:29;;;;;;;10.73;3.60;;;32.20;75.50;;;;;;5077753;28;20094;-79
2023/07/08 11:55:20;;;;;;;7.30;3.50;;;32.20;75.30;;;;;;5088885;28;20040;-78
2023/07/08 11:57:52;;;;;;;8.23;3.20;;;32.20;72.70;;;;;;5083951;28;20047;-79
2023/07/08 12:00:22;;;;;;;5.40;3.40;;;32.30;73.50;;;;;;5101956;28;20054;-79
2023/07/08 12:02:57;;;;;;;4.70;3.38;;;32.50;73.40;;;;;;5085743;28;20040;-78
2023/07/08 12:05:51;;;;;;;7.88;3.90;;;32.60;72.90;;;;;;5086594;28;20483;-79
2023/07/08 12:08:19;;;;;;;5.95;3.58;;;32.70;71.00;;;;;;5083085;28;20056;-78
2023/07/08 12:10:52;;;;;;;8.23;2.80;;;32.80;70.90;;;;;;5082281;28;20123;-78
2023/07/08 12:13:30;;;;;;;13.32;3.90;;;33.00;70.70;;;;;;5099384;28;20505;-79
2023/07/08 12:15:55;;;;;;;6.30;3.33;;;33.10;71.40;;;;;;5090937;28;20047;-80
2023/07/08 12:18:27;;;;;;;7.00;3.92;;;33.10;70.40;;;;;;5081834;28;20040;-78
2023/07/08 12:20:58;;;;;;;5.45;3.40;;;33.20;69.80;;;;;;5090118;28;20143;-78
2023/07/08 12:23:26;;;;;;;4.63;3.30;;;33.20;69.70;;;;;;5092301;28;20036;-80
2023/07/08 12:25:52;;;;;;;7.32;3.53;;;33.20;68.90;;;;;;5094391;28;20089;-79
2023/07/08 12:28:19;;;;;;;5.45;3.80;;;33.10;68.20;;;;;;5091741;28;20058;-79
2023/07/08 12:30:45;;;;;;;;;;;33.20;69.00;;;;;;5087214;28;20118;-78
2023/07/08 12:33:24;;;;;;;4.47;3.45;;;33.20;67.60;;;;;;5087328;28;19919;-79
2023/07/08 12:35:50;;;;;;;7.10;3.38;;;33.10;67.90;;;;;;5081115;28;20037;-79
2023/07/08 12:38:28;;;;;;;6.50;3.70;;;33.00;68.20;;;;;;5086360;28;20041;-80
2023/07/08 12:40:55;;;;;;;7.40;3.50;;;33.10;68.30;;;;;;5092599;28;20388;-79
2023/07/08 12:43:22;;;;;;;7.22;3.67;;;33.10;67.90;;;;;;5094017;28;20094;-78
2023/07/08 12:45:48;;;;;;;6.75;3.42;;;33.20;67.40;;;;;;5089071;28;20044;-80
2023/07/08 12:48:13;;;;;;;6.27;3.27;;;33.20;66.90;;;;;;5084713;28;20036;-79
2023/07/08 12:50:42;;;;;;;8.63;3.85;;;33.20;67.70;;;;;;5083947;28;20113;-78
2023/07/08 12:53:12;;;;;;;8.23;3.70;;;33.20;67.50;;;;;;5102019;28;20112;-80
2023/07/08 12:55:41;;;;;;;9.75;3.50;;;33.10;66.70;;;;;;5085968;28;20055;-79
2023/07/08 12:58:13;;;;;;;7.85;3.42;;;33.10;66.00;;;;;;5077264;28;20059;-80
2023/07/08 13:00:40;;;;;;;9.18;3.42;;;33.10;66.70;;;;;;5083028;28;20040;-80
2023/07/08 13:03:10;;;;;;;7.63;3.83;;;33.10;65.80;;;;;;5077688;28;20442;-79
2023/07/08 13:05:41;;;;;;;8.75;3.88;;;33.10;66.50;;;;;;5077250;28;20559;-79
2023/07/08 13:08:35;;;;;;;7.57;3.60;;;33.30;66.00;;;;;;5090927;28;20052;-78
2023/07/08 13:11:04;;;;;;;6.00;3.85;;;33.50;66.60;;;;;;5083521;28;20533;-80
2023/07/08 13:13:48;;;;;;;5.70;3.83;;;33.60;65.90;;;;;;5093773;28;20166;-80
2023/07/08 13:16:15;;;;;;;6.55;3.80;;;33.70;64.40;;;;;;5089817;28;20044;-80
2023/07/08 13:18:42;;;;;;;11.30;4.18;;;33.70;63.80;;;;;;5092520;28;20082;-78
2023/07/08 13:21:13;;;;;;;6.53;3.75;;;33.60;64.50;;;;;;5094946;28;20044;-80
2023/07/08 13:23:39;;;;;;;6.35;3.55;;;33.60;64.60;;;;;;5088331;28;20441;-79
2023/07/08 13:26:20;;;;;;;8.17;4.00;;;33.50;64.90;;;;;;5095466;28;20044;-81
2023/07/08 13:28:46;;;;;;;9.07;3.83;;;33.70;63.80;;;;;;5077527;28;20049;-80
2023/07/08 13:31:19;;;;;;;7.63;4.00;;;33.80;64.80;;;;;;5086816;28;20165;-80
2023/07/08 13:33:53;;;;;;;8.77;4.10;;;33.80;63.70;;;;;;5093822;28;20135;-79
2023/07/08 13:36:39;;;;;;;8.45;4.30;;;33.80;65.00;;;;;;5089329;28;20040;-79
2023/07/08 13:39:14;;;;;;;5.80;3.88;;;33.70;62.80;;;;;;5096960;28;20052;-79
2023/07/08 13:41:44;;;;;;;7.75;4.03;;;33.80;64.50;;;;;;5089389;28;20046;-78
2023/07/08 13:44:10;;;;;;;7.78;4.05;;;33.60;63.70;;;;;;5092587;28;20048;-79
2023/07/08 13:46:38;;;;;;;5.30;4.10;;;33.60;63.80;;;;;;5086206;28;20432;-78
2023/07/08 13:49:13;;;;;;;7.28;4.60;;;33.70;63.90;;;;;;5100168;28;20032;-80
2023/07/08 13:51:39;;;;;;;8.77;5.93;;;33.80;63.10;;;;;;5085379;28;20047;-78
2023/07/08 13:54:25;;;;;;;12.75;7.85;;;33.70;63.90;;;;;;5092711;28;20032;-79
2023/07/08 13:56:53;;;;;;;11.73;10.05;;;33.60;64.40;;;;;;5094140;28;20053;-79